Time;durP1;ratioP1;P1;durP2;ratioP2;P2;SDS_P1;SDS_P2;PMS_P1;PMS_P2;Temp;Humidity;BMP_temperature;BMP_pressure;BME280_temperature;BME280_humidity;BME280_pressure;Samples;Min_cycle;Max_cycle;Signal;HPM_P1;HPM_P2
2023/06/27 00:02:28;;;;;;;4.40;2.03;;;;;;;;;;4968730;28;20678;-72
2023/06/27 00:05:32;;;;;;;5.73;1.97;;;;;;;;;;4958682;29;20183;-72
2023/06/27 00:08:36;;;;;;;7.17;2.00;;;;;;;;;;4958300;29;20205;-72
2023/06/27 00:11:40;;;;;;;3.33;1.80;;;;;;;;;;4968412;28;20231;-73
2023/06/27 00:14:44;;;;;;;4.67;2.13;;;;;;;;;;4958212;29;20183;-72
2023/06/27 00:17:48;;;;;;;6.57;1.90;;;;;;;;;;4958484;29;20184;-72
2023/06/27 00:20:52;;;;;;;7.47;2.20;;;;;;;;;;4968643;28;20175;-72
2023/06/27 00:23:58;;;;;;;3.10;1.80;;;;;;;;;;4958309;29;20650;-72
2023/06/27 00:27:02;;;;;;;3.90;1.80;;;;;;;;;;4957181;29;20203;-72
2023/06/27 00:30:07;;;;;;;3.77;1.83;;;;;;;;;;4958005;29;20215;-72
2023/06/27 00:33:11;;;;;;;5.17;1.90;;;;;;;;;;4957084;28;20223;-72
2023/06/27 00:36:15;;;;;;;3.27;1.93;;;;;;;;;;4957916;29;20188;-72
2023/06/27 00:39:20;;;;;;;2.23;1.73;;;;;;;;;;4946579;29;20520;-72
2023/06/27 00:42:27;;;;;;;4.83;2.23;;;;;;;;;;4957935;28;20222;-72
2023/06/27 00:45:31;;;;;;;5.47;1.93;;;;;;;;;;4935122;29;20642;-72
2023/06/27 00:48:36;;;;;;;6.30;2.30;;;;;;;;;;4957111;29;20180;-73
2023/06/27 00:51:41;;;;;;;5.53;1.90;;;;;;;;;;4957226;28;20211;-73
2023/06/27 00:54:45;;;;;;;8.70;2.23;;;;;;;;;;4968306;28;20199;-72
2023/06/27 00:57:50;;;;;;;3.70;2.10;;;;;;;;;;4946060;28;20179;-71
2023/06/27 01:01:00;;;;;;;4.27;2.13;;;;;;;;;;4946022;28;20643;-72
2023/06/27 01:04:05;;;;;;;3.23;1.80;;;;;;;;;;4956589;29;20180;-72
2023/06/27 01:07:50;;;;;;;5.27;2.10;;;;;;;;;;4957536;29;20184;-73
2023/06/27 01:11:07;;;;;;;3.03;1.83;;;;;;;;;;4945435;28;20579;-72
2023/06/27 01:14:14;;;;;;;3.90;2.03;;;;;;;;;;4967697;28;20188;-72
2023/06/27 01:17:19;;;;;;;3.73;2.20;;;;;;;;;;4967467;28;20199;-73
2023/06/27 01:20:25;;;;;;;8.20;2.10;;;;;;;;;;4967602;28;20176;-72
2023/06/27 01:23:33;;;;;;;4.13;2.13;;;;;;;;;;4967358;28;20183;-72
2023/06/27 01:26:37;;;;;;;4.47;2.00;;;;;;;;;;4957473;29;20184;-72
2023/06/27 01:29:41;;;;;;;4.77;1.93;;;;;;;;;;4956292;29;20584;-72
2023/06/27 01:32:49;;;;;;;5.80;2.03;;;;;;;;;;4967243;28;20694;-73
2023/06/27 01:35:54;;;;;;;4.00;2.00;;;;;;;;;;4957284;29;20179;-73
2023/06/27 01:39:03;;;;;;;5.13;2.10;;;;;;;;;;4956676;29;20543;-72
2023/06/27 01:42:18;;;;;;;4.33;1.77;;;;;;;;;;4967280;28;20212;-73
2023/06/27 01:45:23;;;;;;;7.37;2.07;;;;;;;;;;4956807;29;20180;-72
2023/06/27 01:48:28;;;;;;;4.17;2.03;;;;;;;;;;4956084;29;20619;-72
2023/06/27 01:51:32;;;;;;;3.20;1.90;;;;;;;;;;4967229;28;20547;-72
2023/06/27 01:54:37;;;;;;;4.20;2.03;;;;;;;;;;4955935;29;20515;-72
2023/06/27 01:57:41;;;;;;;5.00;2.30;;;;;;;;;;4956676;29;20187;-73
2023/06/27 02:00:45;;;;;;;10.03;2.50;;;;;;;;;;4955636;29;20184;-72
2023/06/27 02:03:49;;;;;;;4.33;2.00;;;;;;;;;;4966531;28;20195;-72
2023/06/27 02:06:53;;;;;;;3.77;1.77;;;;;;;;;;4966676;28;20195;-72
2023/06/27 02:09:57;;;;;;;6.07;2.00;;;;;;;;;;4955806;28;20211;-72
2023/06/27 02:13:03;;;;;;;8.30;2.33;;;;;;;;;;4988050;22;20233;-72
2023/06/27 02:16:08;;;;;;;6.47;2.00;;;;;;;;;;5014129;28;20173;-73
2023/06/27 02:19:12;;;;;;;5.37;2.13;;;;;;;;;;5014593;28;20186;-72
2023/06/27 02:22:16;;;;;;;10.40;1.80;;;;;;;;;;5014088;28;20687;-72
2023/06/27 02:25:20;;;;;;;6.07;2.27;;;;;;;;;;5024826;28;20189;-72
2023/06/27 02:28:24;;;;;;;8.00;2.30;;;;;;;;;;5002426;28;20189;-73
2023/06/27 02:31:29;;;;;;;2.87;1.90;;;;;;;;;;5024761;28;20565;-72
2023/06/27 02:34:34;;;;;;;11.03;2.00;;;;;;;;;;5024595;28;20660;-72
2023/06/27 02:37:40;;;;;;;3.70;1.87;;;;;;;;;;5002548;28;20185;-72
2023/06/27 02:40:43;;;;;;;6.13;1.90;;;;;;;;;;5013108;28;20193;-72
2023/06/27 02:43:48;;;;;;;4.80;2.03;;;;;;;;;;5014445;28;20178;-72
2023/06/27 02:46:52;;;;;;;6.67;1.93;;;;;;;;;;5014051;28;20636;-72
2023/06/27 02:49:57;;;;;;;6.37;2.20;;;;;;;;;;5013908;28;20561;-72
2023/06/27 02:53:01;;;;;;;4.77;2.10;;;;;;;;;;5024380;28;20699;-72
2023/06/27 02:56:07;;;;;;;6.10;2.00;;;;;;;;;;5024208;28;20197;-72
2023/06/27 02:59:12;;;;;;;6.60;2.10;;;;;;;;;;5001774;28;20177;-72
2023/06/27 03:02:17;;;;;;;7.67;1.97;;;;;;;;;;5012717;28;20217;-72
2023/06/27 03:05:21;;;;;;;7.20;2.50;;;;;;;;;;5013292;28;20181;-72
2023/06/27 03:08:25;;;;;;;6.20;1.90;;;;;;;;;;5001465;28;20185;-72
2023/06/27 03:11:31;;;;;;;4.37;1.87;;;;;;;;;;5001774;28;20232;-72
2023/06/27 03:14:35;;;;;;;4.93;2.17;;;;;;;;;;5012838;28;20196;-72
2023/06/27 03:17:40;;;;;;;2.90;1.90;;;;;;;;;;5014004;28;20506;-72
2023/06/27 03:20:45;;;;;;;3.80;2.10;;;;;;;;;;5012749;28;20174;-72
2023/06/27 03:23:49;;;;;;;6.23;2.27;;;;;;;;;;5013400;28;20182;-72
2023/06/27 03:26:54;;;;;;;4.30;2.13;;;;;;;;;;5013064;28;20629;-72
2023/06/27 03:29:58;;;;;;;4.00;2.17;;;;;;;;;;5024066;28;20217;-72
2023/06/27 03:33:04;;;;;;;7.07;2.73;;;;;;;;;;5001667;28;20217;-72
2023/06/27 03:36:09;;;;;;;10.00;2.27;;;;;;;;;;5012767;28;20185;-72
2023/06/27 03:39:13;;;;;;;3.47;2.23;;;;;;;;;;5001453;28;20178;-72
2023/06/27 03:42:17;;;;;;;1.97;1.67;;;;;;;;;;5012455;28;20235;-72
2023/06/27 03:45:21;;;;;;;5.87;2.20;;;;;;;;;;5013371;28;20185;-72
2023/06/27 03:48:25;;;;;;;6.47;1.93;;;;;;;;;;5012614;28;20186;-72
2023/06/27 03:51:29;;;;;;;6.43;2.20;;;;;;;;;;5000936;28;20233;-72
2023/06/27 03:54:34;;;;;;;4.73;2.23;;;;;;;;;;5023602;28;20201;-72
2023/06/27 03:57:38;;;;;;;9.33;2.00;;;;;;;;;;5013056;28;20665;-72
2023/06/27 04:00:42;;;;;;;5.43;2.30;;;;;;;;;;5023561;28;20182;-72
2023/06/27 04:03:46;;;;;;;7.37;2.30;;;;;;;;;;5024100;28;20521;-72
2023/06/27 04:06:50;;;;;;;5.07;2.10;;;;;;;;;;5023578;28;20211;-72
2023/06/27 04:09:55;;;;;;;4.00;2.07;;;;;;;;;;5012591;28;20182;-72
2023/06/27 04:12:59;;;;;;;8.97;2.00;;;;;;;;;;5013237;28;20220;-72
2023/06/27 04:16:04;;;;;;;6.53;2.30;;;;;;;;;;5001111;28;20521;-72
2023/06/27 04:19:08;;;;;;;3.07;1.70;;;;;;;;;;5023718;28;20205;-72
2023/06/27 04:22:12;;;;;;;6.33;1.90;;;;;;;;;;5023741;28;20221;-72
2023/06/27 04:25:17;;;;;;;6.30;2.13;;;;;;;;;;5023351;28;20182;-72
2023/06/27 04:28:21;;;;;;;5.63;2.00;;;;;;;;;;5001024;28;20185;-72
2023/06/27 04:31:25;;;;;;;6.30;1.90;;;;;;;;;;5001026;28;20229;-72
2023/06/27 04:34:29;;;;;;;5.07;1.90;;;;;;;;;;5016169;28;20628;-72
2023/06/27 04:37:33;;;;;;;3.30;1.70;;;;;;;;;;5016398;28;20185;-72
2023/06/27 04:40:38;;;;;;;3.00;1.87;;;;;;;;;;5004686;28;20521;-72
2023/06/27 04:43:42;;;;;;;5.60;2.00;;;;;;;;;;5004306;28;20541;-72
2023/06/27 04:46:46;;;;;;;3.30;1.87;;;;;;;;;;5016031;28;20190;-72
2023/06/27 04:49:50;;;;;;;3.27;1.90;;;;;;;;;;5026580;28;20177;-72
2023/06/27 04:52:54;;;;;;;4.63;2.37;;;;;;;;;;5016137;28;20209;-72
2023/06/27 04:55:58;;;;;;;4.87;1.90;;;;;;;;;;5016400;28;20173;-72
2023/06/27 04:59:02;;;;;;;3.07;1.80;;;;;;;;;;5016624;28;20193;-72
2023/06/27 05:02:07;;;;;;;6.13;2.00;;;;;;;;;;5015790;28;20221;-72
2023/06/27 05:05:12;;;;;;;7.03;2.27;;;;;;;;;;5015675;28;20668;-72
2023/06/27 05:08:16;;;;;;;4.87;1.70;;;;;;;;;;5026134;28;20201;-71
2023/06/27 05:11:20;;;;;;;2.80;1.67;;;;;;;;;;5015723;28;20573;-72
2023/06/27 05:14:24;;;;;;;5.10;2.17;;;;;;;;;;5025860;28;20205;-72
2023/06/27 05:17:28;;;;;;;4.33;1.90;;;;;;;;;;5014675;28;20181;-72
2023/06/27 05:20:33;;;;;;;6.87;1.87;;;;;;;;;;5015384;28;20196;-72
2023/06/27 05:23:37;;;;;;;4.33;1.63;;;;;;;;;;5003528;28;20178;-72
2023/06/27 05:26:42;;;;;;;5.63;1.93;;;;;;;;;;5015335;28;20182;-72
2023/06/27 05:29:46;;;;;;;4.10;2.23;;;;;;;;;;5014429;28;20178;-72
2023/06/27 05:32:50;;;;;;;6.13;1.77;;;;;;;;;;5015149;28;20213;-72
2023/06/27 05:35:54;;;;;;;5.97;2.20;;;;;;;;;;5015598;28;20174;-72
2023/06/27 05:38:59;;;;;;;3.53;1.33;;;;;;;;;;5015291;28;20174;-72
2023/06/27 05:42:03;;;;;;;4.90;2.13;;;;;;;;;;5015173;28;20217;-72
2023/06/27 05:45:08;;;;;;;2.37;1.30;;;;;;;;;;5025002;28;20206;-72
2023/06/27 05:48:12;;;;;;;4.67;1.50;;;;;;;;;;5014832;28;20628;-71
2023/06/27 05:51:16;;;;;;;3.10;1.40;;;;;;;;;;5014853;28;20229;-72
2023/06/27 05:54:21;;;;;;;5.27;2.00;;;;;;;;;;5015206;28;20186;-72
2023/06/27 05:57:25;;;;;;;5.63;1.40;;;;;;;;;;5014460;28;20182;-72
2023/06/27 06:00:29;;;;;;;7.83;1.83;;;;;;;;;;5015135;28;20200;-71
2023/06/27 06:03:33;;;;;;;4.23;1.53;;;;;;;;;;5013567;28;20197;-72
2023/06/27 06:06:38;;;;;;;6.37;1.80;;;;;;;;;;5015029;28;20185;-71
2023/06/27 06:09:42;;;;;;;3.70;1.60;;;;;;;;;;5014803;28;20181;-72
2023/06/27 06:12:46;;;;;;;2.97;1.60;;;;;;;;;;5024788;28;20699;-72
2023/06/27 06:15:50;;;;;;;2.90;1.80;;;;;;;;;;5013704;28;20181;-72
2023/06/27 06:18:54;;;;;;;6.07;1.80;;;;;;;;;;5014050;28;20193;-72
2023/06/27 06:21:58;;;;;;;5.37;1.70;;;;;;;;;;5014430;28;20216;-72
2023/06/27 06:25:03;;;;;;;7.60;1.80;;;;;;;;;;5024759;28;20533;-72
2023/06/27 06:28:07;;;;;;;7.60;2.17;;;;;;;;;;5024963;28;20181;-72
2023/06/27 06:31:14;;;;;;;5.63;1.60;;;;;;;;;;5014141;28;20224;-72
2023/06/27 06:34:18;;;;;;;2.67;1.50;;;;;;;;;;5013743;28;20178;-72
2023/06/27 06:37:22;;;;;;;3.33;1.53;;;;;;;;;;5013942;28;20645;-71
2023/06/27 06:40:29;;;;;;;2.20;1.50;;;;;;;;;;5014499;28;20177;-72
2023/06/27 06:43:33;;;;;;;3.73;1.70;;;;;;;;;;5014450;28;20625;-72
2023/06/27 06:46:38;;;;;;;5.23;1.60;;;;;;;;;;5013857;28;20185;-72
2023/06/27 06:49:42;;;;;;;5.00;1.40;;;;;;;;;;5013838;28;20185;-72
2023/06/27 06:52:46;;;;;;;1.57;1.27;;;;;;;;;;5013605;28;20229;-72
2023/06/27 06:55:50;;;;;;;3.67;1.80;;;;;;;;;;5014099;28;20177;-72
2023/06/27 06:58:54;;;;;;;4.53;1.63;;;;;;;;;;5014229;28;20201;-72
2023/06/27 07:01:58;;;;;;;3.07;1.93;;;;;;;;;;5013599;28;20213;-72
2023/06/27 07:05:04;;;;;;;4.30;1.53;;;;;;;;;;5014238;28;20181;-72
2023/06/27 07:08:08;;;;;;;4.27;1.83;;;;;;;;;;5013857;28;20173;-72
2023/06/27 07:11:12;;;;;;;3.57;1.70;;;;;;;;;;5024534;28;20229;-72
2023/06/27 07:14:18;;;;;;;5.53;1.83;;;;;;;;;;5013789;28;20664;-72
2023/06/27 07:17:21;;;;;;;5.63;1.73;;;;;;;;;;5014018;28;20185;-72
2023/06/27 07:20:26;;;;;;;6.30;1.60;;;;;;;;;;5014527;28;20636;-72
2023/06/27 07:23:30;;;;;;;2.17;1.50;;;;;;;;;;5013074;28;20178;-72
2023/06/27 07:26:34;;;;;;;5.40;1.57;;;;;;;;;;5012978;28;20185;-72
2023/06/27 07:29:38;;;;;;;5.77;2.00;;;;;;;;;;5013657;28;20197;-72
2023/06/27 07:32:42;;;;;;;4.20;1.97;;;;;;;;;;5013623;28;20573;-72
2023/06/27 07:35:47;;;;;;;4.20;1.80;;;;;;;;;;5013700;28;20186;-72
2023/06/27 07:38:51;;;;;;;2.80;1.80;;;;;;;;;;5013708;28;20177;-72
2023/06/27 07:41:55;;;;;;;6.37;1.90;;;;;;;;;;5013242;28;20213;-72
2023/06/27 07:44:59;;;;;;;4.97;2.10;;;;;;;;;;5013982;28;20177;-72
2023/06/27 07:48:04;;;;;;;3.93;1.77;;;;;;;;;;5013484;28;20182;-72
2023/06/27 07:51:08;;;;;;;11.40;1.90;;;;;;;;;;5013365;28;20185;-72
2023/06/27 07:54:12;;;;;;;5.03;1.70;;;;;;;;;;5013107;28;20190;-72
2023/06/27 07:57:16;;;;;;;9.87;2.20;;;;;;;;;;5013345;28;20505;-72
2023/06/27 08:00:20;;;;;;;9.80;2.10;;;;;;;;;;5013519;28;20182;-72
2023/06/27 08:03:25;;;;;;;4.83;1.70;;;;;;;;;;5013262;28;20181;-72
2023/06/27 08:06:29;;;;;;;4.80;1.70;;;;;;;;;;5013247;28;20181;-72
2023/06/27 08:09:33;;;;;;;3.50;1.57;;;;;;;;;;5016469;28;20177;-72
2023/06/27 08:12:38;;;;;;;3.97;1.77;;;;;;;;;;5016639;28;20698;-72
2023/06/27 08:15:42;;;;;;;3.33;1.27;;;;;;;;;;5031197;22;20238;-73
2023/06/27 08:18:47;;;;;;;2.00;1.10;;;;;;;;;;5027460;28;20187;-73
2023/06/27 08:21:51;;;;;;;5.60;1.73;;;;;;;;;;5015643;28;20210;-73
2023/06/27 08:24:55;;;;;;;4.30;1.37;;;;;;;;;;5027032;28;20199;-71
2023/06/27 08:27:59;;;;;;;6.23;1.37;;;;;;;;;;5015553;28;20200;-73
2023/06/27 08:31:03;;;;;;;4.17;1.47;;;;;;;;;;5015742;28;20185;-73
2023/06/27 08:34:07;;;;;;;3.70;1.67;;;;;;;;;;5027656;28;20179;-71
2023/06/27 08:37:12;;;;;;;5.57;1.53;;;;;;;;;;5016668;28;20192;-73
2023/06/27 08:40:24;;;;;;;4.57;1.30;;;;;;;;;;5016031;28;20184;-72
2023/06/27 08:43:28;;;;;;;4.60;1.40;;;;;;;;;;5016637;28;20196;-73
2023/06/27 08:46:34;;;;;;;7.70;1.70;;;;;;;;;;5016627;28;20197;-73
2023/06/27 08:49:40;;;;;;;4.97;1.67;;;;;;;;;;5016732;28;20666;-72
2023/06/27 08:52:59;;;;;;;3.78;1.60;;;;;;;;;;5015983;28;20335;-72
2023/06/27 08:56:10;;;;;;;4.20;1.83;;;;;;;;;;5016464;28;20189;-73
2023/06/27 08:59:19;;;;;;;4.03;1.40;;;;;;;;;;5016432;28;20187;-73
2023/06/27 09:02:25;;;;;;;4.03;1.40;;;;;;;;;;5027030;28;20216;-72
2023/06/27 09:05:34;;;;;;;4.45;1.60;;;;;;;;;;5015784;28;20179;-72
2023/06/27 09:08:39;;;;;;;3.85;1.33;;;;;;;;;;5015954;28;20184;-72
2023/06/27 09:11:44;;;;;;;2.97;1.52;;;;;;;;;;5015861;28;20230;-74
2023/06/27 09:14:48;;;;;;;4.13;1.90;;;;;;;;;;5016139;28;20208;-72
2023/06/27 09:17:53;;;;;;;4.68;1.50;;;;;;;;;;5015040;28;20188;-71
2023/06/27 09:20:57;;;;;;;3.55;1.38;;;;;;;;;;5015829;28;20185;-73
2023/06/27 09:24:06;;;;;;;4.35;1.60;;;;;;;;;;5015720;28;20176;-72
2023/06/27 09:27:34;;;;;;;4.25;1.48;;;;;;;;;;5026236;28;20184;-73
2023/06/27 09:30:38;;;;;;;2.97;1.35;;;;;;;;;;5015424;28;20638;-73
2023/06/27 09:33:43;;;;;;;6.03;1.52;;;;;;;;;;5014531;28;20228;-72
2023/06/27 09:36:47;;;;;;;6.80;2.30;;;;;;;;;;5015203;28;20187;-71
2023/06/27 09:39:52;;;;;;;4.03;1.67;;;;;;;;;;5015500;28;20628;-72
2023/06/27 09:42:58;;;;;;;4.32;1.48;;;;;;;;;;5015484;28;20212;-73
2023/06/27 09:46:05;;;;;;;4.10;1.60;;;;;;;;;;5015342;28;20176;-73
2023/06/27 09:49:10;;;;;;;3.00;1.67;;;;;;;;;;5015473;28;20182;-73
2023/06/27 09:52:18;;;;;;;3.87;1.63;;;;;;;;;;5014113;28;20226;-72
2023/06/27 09:55:22;;;;;;;3.33;1.63;;;;;;;;;;5014243;28;20185;-72
2023/06/27 09:58:30;;;;;;;18.20;2.93;;;;;;;;;;5013875;28;20635;-73
2023/06/27 10:01:38;;;;;;;96.00;9.40;;;;;;;;;;5014139;28;20213;-72
2023/06/27 10:04:42;;;;;;;60.50;5.53;;;;;;;;;;5014808;28;20627;-72
2023/06/27 10:07:52;;;;;;;13.27;2.20;;;;;;;;;;5013958;28;20183;-73
2023/06/27 10:10:57;;;;;;;10.07;2.03;;;;;;;;;;5025405;28;20199;-72
2023/06/27 10:14:03;;;;;;;3.30;1.70;;;;;;;;;;5024829;28;20245;-71
2023/06/27 10:17:08;;;;;;;5.10;1.73;;;;;;;;;;5014357;28;20183;-72
2023/06/27 10:20:13;;;;;;;3.90;1.50;;;;;;;;;;5014628;28;20511;-71
2023/06/27 10:23:17;;;;;;;9.73;1.80;;;;;;;;;;5014304;28;20176;-72
2023/06/27 10:26:25;;;;;;;3.43;1.73;;;;;;;;;;5013730;28;20181;-72
2023/06/27 10:29:31;;;;;;;3.97;1.80;;;;;;;;;;5013870;28;20188;-73
2023/06/27 10:32:43;;;;;;;6.73;1.60;;;;;;;;;;5014792;28;20690;-72
2023/06/27 10:35:53;;;;;;;3.87;1.50;;;;;;;;;;5014056;28;20199;-73
2023/06/27 10:38:59;;;;;;;6.50;1.40;;;;;;;;;;5014052;28;20178;-73
2023/06/27 10:42:25;;;;;;;3.83;1.67;;;;;;;;;;5014053;28;20568;-73
2023/06/27 10:45:30;;;;;;;3.43;1.50;;;;;;;;;;5014093;28;20178;-73
2023/06/27 10:48:47;;;;;;;4.20;1.77;;;;;;;;;;5014153;28;20173;-73
2023/06/27 10:51:51;;;;;;;2.83;1.42;;;;;;;;;;5024101;28;20215;-72
2023/06/27 10:55:14;;;;;;;3.47;1.73;;;;;;;;;;5013889;28;20529;-73
2023/06/27 10:58:26;;;;;;;4.18;1.55;;;;;;;;;;5014287;28;20183;-73
2023/06/27 11:01:31;;;;;;;2.83;1.50;;;;;;;;;;5013671;28;20224;-73
2023/06/27 11:04:41;;;;;;;3.63;1.50;;;;;;;;;;5014275;28;20506;-73
2023/06/27 11:07:52;;;;;;;5.03;1.30;;;;;;;;;;5013716;28;20536;-73
2023/06/27 11:10:59;;;;;;;2.65;1.42;;;;;;;;;;5012822;28;20179;-73
2023/06/27 11:14:06;;;;;;;1.85;1.40;;;;;;;;;;5001834;28;20226;-73
2023/06/27 11:17:11;;;;;;;3.53;1.67;;;;;;;;;;5012879;28;20190;-72
2023/06/27 11:20:16;;;;;;;3.45;1.40;;;;;;;;;;5024037;28;20182;-71
2023/06/27 11:23:21;;;;;;;4.60;1.55;;;;;;;;;;5023848;28;20181;-72
2023/06/27 11:26:26;;;;;;;2.53;1.50;;;;;;;;;;5014128;28;20641;-73
2023/06/27 11:29:32;;;;;;;2.43;1.50;;;;;;;;;;5012927;28;20186;-72
2023/06/27 11:32:36;;;;;;;3.90;1.50;;;;;;;;;;5013617;28;20686;-72
2023/06/27 11:35:40;;;;;;;9.43;1.90;;;;;;;;;;5013270;28;20189;-71
2023/06/27 11:38:45;;;;;;;2.47;1.67;;;;;;;;;;5023880;28;20185;-71
2023/06/27 11:41:53;;;;;;;4.97;1.80;;;;;;;;;;5023633;28;20571;-73
2023/06/27 11:44:57;;;;;;;5.47;1.67;;;;;;;;;;5028281;28;20620;-73
2023/06/27 11:48:01;;;;;;;2.87;1.57;;;;;;;;;;5017272;28;20180;-72
2023/06/27 11:51:08;;;;;;;2.13;1.23;;;;;;;;;;5028145;28;20175;-73
2023/06/27 11:54:16;;;;;;;2.75;1.75;;;;;;;;;;5028215;28;20216;-73
2023/06/27 11:57:21;;;;;;;2.47;1.35;;;;;;;;;;5017300;28;20179;-73
2023/06/27 12:00:28;;;;;;;5.32;1.70;;;;;;;;;;5016150;28;20202;-73
2023/06/27 12:03:33;;;;;;;5.43;1.92;;;;;;;;;;5016829;28;20200;-72
2023/06/27 12:06:37;;;;;;;2.38;1.10;;;;;;;;;;5016852;28;20198;-73
2023/06/27 12:09:41;;;;;;;4.13;1.55;;;;;;;;;;5016513;28;20197;-73
2023/06/27 12:12:45;;;;;;;2.28;1.40;;;;;;;;;;5014994;28;20308;-73
2023/06/27 12:15:49;;;;;;;3.38;1.45;;;;;;;;;;5023171;28;20652;-73
2023/06/27 12:19:04;;;;;;;4.32;1.00;;;;;;;;;;5011613;28;20178;-73
2023/06/27 12:22:08;;;;;;;2.17;1.20;;;;;;;;;;5012278;28;20217;-73
2023/06/27 12:25:12;;;;;;;5.53;1.40;;;;;;;;;;5011431;28;20493;-73
2023/06/27 12:28:17;;;;;;;3.00;1.30;;;;;;;;;;5026017;28;20175;-72
2023/06/27 12:31:21;;;;;;;4.15;1.52;;;;;;;;;;5016672;28;20652;-73
2023/06/27 12:34:25;;;;;;;8.55;1.90;;;;;;;;;;5015733;28;20209;-73
2023/06/27 12:37:33;;;;;;;2.60;1.50;;;;;;;;;;5015583;28;20184;-72
2023/06/27 12:40:37;;;;;;;4.57;1.55;;;;;;;;;;5017020;28;20626;-73
2023/06/27 12:43:41;;;;;;;2.95;1.20;;;;;;;;;;5016481;28;20179;-73
2023/06/27 12:46:46;;;;;;;13.00;1.83;;;;;;;;;;5015579;28;20186;-73
2023/06/27 12:49:50;;;;;;;3.60;1.20;;;;;;;;;;5016625;28;20179;-73
2023/06/27 12:52:54;;;;;;;4.10;1.40;;;;;;;;;;5015038;28;20223;-72
2023/06/27 12:56:04;;;;;;;2.60;1.40;;;;;;;;;;5015937;28;20568;-71
2023/06/27 12:59:08;;;;;;;3.95;1.40;;;;;;;;;;5016152;28;20185;-73
2023/06/27 13:02:15;;;;;;;4.53;1.48;;;;;;;;;;5003698;28;20218;-73
2023/06/27 13:05:19;;;;;;;3.80;1.55;;;;;;;;;;5015975;28;20184;-71
2023/06/27 13:08:24;;;;;;;1.40;1.20;;;;;;;;;;5015851;28;20539;-73
2023/06/27 13:11:28;;;;;;;4.88;1.40;;;;;;;;;;5026092;28;20222;-73
2023/06/27 13:14:32;;;;;;;4.28;1.40;;;;;;;;;;5015667;28;20568;-73
2023/06/27 13:17:37;;;;;;;4.25;1.50;;;;;;;;;;5015220;28;20189;-73
2023/06/27 13:20:42;;;;;;;4.43;1.45;;;;;;;;;;5015695;28;20199;-73
2023/06/27 13:23:48;;;;;;;2.80;1.48;;;;;;;;;;5015421;28;20178;-73
2023/06/27 13:26:51;;;;;;;3.22;1.50;;;;;;;;;;5015671;28;20186;-72
2023/06/27 13:29:56;;;;;;;3.95;1.40;;;;;;;;;;5015574;28;20182;-73
2023/06/27 13:33:00;;;;;;;6.13;1.65;;;;;;;;;;5003150;28;20579;-71
2023/06/27 13:36:05;;;;;;;1.73;1.40;;;;;;;;;;5015136;28;20197;-73
2023/06/27 13:39:09;;;;;;;2.97;1.60;;;;;;;;;;5015304;28;20204;-73
2023/06/27 13:42:13;;;;;;;4.10;1.80;;;;;;;;;;5014290;28;20217;-73
2023/06/27 13:45:18;;;;;;;3.15;1.55;;;;;;;;;;5015294;28;20513;-71
2023/06/27 13:48:22;;;;;;;9.07;1.88;;;;;;;;;;5014147;28;20183;-73
2023/06/27 13:51:27;;;;;;;3.63;1.70;;;;;;;;;;5015329;28;20220;-73
2023/06/27 13:54:32;;;;;;;6.30;1.60;;;;;;;;;;5015037;28;20206;-73
2023/06/27 13:57:36;;;;;;;5.67;1.77;;;;;;;;;;5015253;28;20197;-73
2023/06/27 14:00:40;;;;;;;3.67;1.60;;;;;;;;;;5025578;28;20186;-73
2023/06/27 14:03:44;;;;;;;3.63;1.67;;;;;;;;;;5015211;28;20183;-72
2023/06/27 14:06:52;;;;;;;4.73;1.60;;;;;;;;;;5014333;28;20188;-73
2023/06/27 14:09:57;;;;;;;4.77;1.90;;;;;;;;;;5015069;28;20181;-73
2023/06/27 14:13:02;;;;;;;4.80;1.70;;;;;;;;;;5014678;28;20221;-73
2023/06/27 14:16:06;;;;;;;3.80;1.83;;;;;;;;;;5030752;22;20234;-72
2023/06/27 14:19:10;;;;;;;5.13;1.50;;;;;;;;;;5027843;28;20200;-72
2023/06/27 14:22:14;;;;;;;4.77;1.60;;;;;;;;;;5017589;28;20214;-72
2023/06/27 14:25:18;;;;;;;2.53;1.50;;;;;;;;;;5017679;28;20620;-72
2023/06/27 14:28:23;;;;;;;3.60;1.30;;;;;;;;;;5017651;28;20552;-72
2023/06/27 14:31:28;;;;;;;5.80;1.60;;;;;;;;;;5017296;28;20569;-72
2023/06/27 14:34:32;;;;;;;3.20;1.33;;;;;;;;;;5017218;28;20222;-72
2023/06/27 14:37:36;;;;;;;2.60;1.50;;;;;;;;;;5017042;28;20183;-72
2023/06/27 14:40:40;;;;;;;7.50;1.50;;;;;;;;;;5016875;28;20619;-72
2023/06/27 14:43:44;;;;;;;4.07;1.37;;;;;;;;;;5017402;28;20169;-72
2023/06/27 14:46:49;;;;;;;7.07;1.80;;;;;;;;;;5016401;28;20181;-74
2023/06/27 14:49:53;;;;;;;2.57;1.30;;;;;;;;;;5017686;28;20186;-73
2023/06/27 14:52:57;;;;;;;6.57;1.50;;;;;;;;;;5016068;28;20222;-72
2023/06/27 14:56:02;;;;;;;6.00;1.50;;;;;;;;;;5017249;28;20175;-72
2023/06/27 14:59:06;;;;;;;5.47;1.77;;;;;;;;;;5006125;28;20183;-72
2023/06/27 15:02:10;;;;;;;1.43;1.17;;;;;;;;;;5017059;28;20212;-73
2023/06/27 15:05:14;;;;;;;3.93;1.30;;;;;;;;;;5017066;28;20180;-73
2023/06/27 15:08:18;;;;;;;5.80;1.57;;;;;;;;;;5016881;28;20177;-72
2023/06/27 15:11:22;;;;;;;4.07;1.60;;;;;;;;;;5016143;28;20223;-72
2023/06/27 15:14:27;;;;;;;3.03;1.30;;;;;;;;;;5017252;28;20206;-72
2023/06/27 15:17:32;;;;;;;3.63;1.60;;;;;;;;;;5016957;28;20179;-72
2023/06/27 15:20:37;;;;;;;4.90;1.50;;;;;;;;;;5016487;28;20204;-72
2023/06/27 15:23:40;;;;;;;3.60;1.60;;;;;;;;;;5016474;28;20204;-72
2023/06/27 15:26:45;;;;;;;6.13;1.60;;;;;;;;;;5016475;28;20198;-72
2023/06/27 15:29:50;;;;;;;2.30;1.40;;;;;;;;;;5015020;28;20546;-72
2023/06/27 15:32:54;;;;;;;4.27;1.57;;;;;;;;;;5016584;28;20223;-72
2023/06/27 15:35:58;;;;;;;5.03;1.60;;;;;;;;;;5014780;28;20194;-72
2023/06/27 15:39:02;;;;;;;5.30;1.70;;;;;;;;;;5015094;28;20200;-72
2023/06/27 15:42:07;;;;;;;3.97;1.37;;;;;;;;;;5014683;28;20213;-72
2023/06/27 15:45:11;;;;;;;3.50;1.40;;;;;;;;;;5015318;28;20181;-72
2023/06/27 15:48:15;;;;;;;3.47;1.70;;;;;;;;;;5014895;28;20188;-72
2023/06/27 15:51:19;;;;;;;4.07;1.43;;;;;;;;;;5014658;28;20223;-72
2023/06/27 15:54:24;;;;;;;5.30;1.30;;;;;;;;;;5015161;28;20233;-72
2023/06/27 15:57:30;;;;;;;5.60;1.10;;;;;;;;;;5015407;28;20506;-72
2023/06/27 16:00:34;;;;;;;5.83;1.50;;;;;;;;;;5014500;28;20185;-72
2023/06/27 16:03:38;;;;;;;2.50;1.20;;;;;;;;;;5014022;28;20202;-72
2023/06/27 16:06:42;;;;;;;3.07;1.47;;;;;;;;;;5015084;28;20657;-72
2023/06/27 16:09:46;;;;;;;3.90;1.40;;;;;;;;;;5014072;28;20197;-73
2023/06/27 16:12:50;;;;;;;4.00;1.43;;;;;;;;;;5013501;28;20221;-72
2023/06/27 16:15:54;;;;;;;2.33;1.40;;;;;;;;;;5014441;28;20687;-72
2023/06/27 16:18:59;;;;;;;3.97;1.33;;;;;;;;;;5012992;28;20201;-72
2023/06/27 16:22:03;;;;;;;5.17;1.70;;;;;;;;;;5014505;28;20219;-72
2023/06/27 16:25:07;;;;;;;6.43;1.50;;;;;;;;;;5001992;28;20198;-72
2023/06/27 16:28:12;;;;;;;6.80;1.33;;;;;;;;;;5013689;28;20204;-73
2023/06/27 16:31:16;;;;;;;3.63;1.40;;;;;;;;;;5017260;28;20220;-72
2023/06/27 16:34:20;;;;;;;1.97;1.30;;;;;;;;;;5017437;28;20687;-73
2023/06/27 16:37:24;;;;;;;5.70;1.60;;;;;;;;;;5005342;28;20191;-72
2023/06/27 16:40:28;;;;;;;2.40;1.40;;;;;;;;;;5017132;28;20188;-73
2023/06/27 16:43:32;;;;;;;2.10;1.53;;;;;;;;;;5016976;28;20188;-72
2023/06/27 16:46:37;;;;;;;3.43;1.63;;;;;;;;;;5016020;28;20183;-72
2023/06/27 16:49:42;;;;;;;4.23;1.27;;;;;;;;;;5016217;28;20520;-72
2023/06/27 16:52:46;;;;;;;3.60;1.30;;;;;;;;;;5015572;28;20220;-72
2023/06/27 16:55:50;;;;;;;4.20;1.27;;;;;;;;;;5016988;28;20215;-72
2023/06/27 16:58:54;;;;;;;3.13;1.57;;;;;;;;;;5016956;28;20187;-72
2023/06/27 17:01:59;;;;;;;2.97;1.30;;;;;;;;;;5015669;28;20563;-73
2023/06/27 17:05:04;;;;;;;2.27;1.27;;;;;;;;;;5015777;28;20194;-72
2023/06/27 17:08:08;;;;;;;1.83;1.20;;;;;;;;;;5004364;28;20184;-72
2023/06/27 17:11:12;;;;;;;2.77;1.47;;;;;;;;;;5016180;28;20214;-74
2023/06/27 17:14:16;;;;;;;2.50;1.20;;;;;;;;;;5016580;28;20669;-74
2023/06/27 17:17:20;;;;;;;5.53;1.83;;;;;;;;;;5015788;28;20522;-74
2023/06/27 17:20:25;;;;;;;5.23;1.50;;;;;;;;;;5016634;28;20191;-74
2023/06/27 17:23:29;;;;;;;4.60;1.80;;;;;;;;;;5015186;28;20178;-74
2023/06/27 17:26:33;;;;;;;1.97;1.17;;;;;;;;;;5016194;28;20180;-74
2023/06/27 17:29:37;;;;;;;2.70;1.20;;;;;;;;;;5015924;28;20175;-75
2023/06/27 17:32:41;;;;;;;3.00;1.50;;;;;;;;;;5015710;28;20215;-73
2023/06/27 17:35:46;;;;;;;2.90;1.53;;;;;;;;;;5004322;28;20230;-73
2023/06/27 17:38:50;;;;;;;3.67;1.60;;;;;;;;;;5015907;28;20179;-74
2023/06/27 17:41:54;;;;;;;2.40;1.47;;;;;;;;;;5015010;28;20223;-72
2023/06/27 17:44:58;;;;;;;6.30;1.50;;;;;;;;;;5015501;28;20174;-72
2023/06/27 17:48:03;;;;;;;1.70;1.40;;;;;;;;;;5003590;28;20182;-72
2023/06/27 17:51:07;;;;;;;3.77;1.27;;;;;;;;;;5015533;28;20178;-72
2023/06/27 17:54:11;;;;;;;5.03;1.40;;;;;;;;;;5014825;28;20177;-72
2023/06/27 17:57:15;;;;;;;1.73;1.10;;;;;;;;;;5015326;28;20182;-72
2023/06/27 18:00:20;;;;;;;2.03;1.33;;;;;;;;;;5015195;28;20182;-72
2023/06/27 18:03:24;;;;;;;5.43;1.33;;;;;;;;;;5015414;28;20178;-72
2023/06/27 18:06:28;;;;;;;5.13;1.60;;;;;;;;;;5014298;28;20169;-72
2023/06/27 18:09:32;;;;;;;2.33;1.40;;;;;;;;;;5014575;28;20178;-72
2023/06/27 18:12:37;;;;;;;2.27;1.33;;;;;;;;;;5014209;28;20213;-72
2023/06/27 18:15:41;;;;;;;3.83;1.40;;;;;;;;;;5014736;28;20228;-72
2023/06/27 18:18:46;;;;;;;3.33;1.60;;;;;;;;;;5014682;28;20197;-72
2023/06/27 18:21:50;;;;;;;4.90;1.60;;;;;;;;;;5014800;28;20221;-72
2023/06/27 18:24:54;;;;;;;4.00;1.40;;;;;;;;;;5014939;28;20185;-72
2023/06/27 18:27:58;;;;;;;3.83;1.60;;;;;;;;;;4991871;28;20177;-72
2023/06/27 18:31:03;;;;;;;3.60;1.77;;;;;;;;;;5014622;28;20185;-72